sensor_id;sensor_type;location;lat;lon;timestamp;P1;durP1;ratioP1;P2;durP2;ratioP2
44102;SDS011;29769;42.178;24.742;2024-01-15T00:01:21;9.65;;;3.85;;
44102;SDS011;29769;42.178;24.742;2024-01-15T00:04:06;2.85;;;0.80;;
44102;SDS011;29769;42.178;24.742;2024-01-15T00:06:51;2.75;;;1.70;;
44102;SDS011;29769;42.178;24.742;2024-01-15T00:09:36;2.22;;;1.85;;
44102;SDS011;29769;42.178;24.742;2024-01-15T00:12:21;1.88;;;1.77;;
44102;SDS011;29769;42.178;24.742;2024-01-15T00:15:06;3.45;;;3.15;;
44102;SDS011;29769;42.178;24.742;2024-01-15T00:17:52;2.55;;;2.35;;
44102;SDS011;29769;42.178;24.742;2024-01-15T00:20:37;11.55;;;1.67;;
44102;SDS011;29769;42.178;24.742;2024-01-15T00:23:22;1.83;;;1.67;;
44102;SDS011;29769;42.178;24.742;2024-01-15T00:26:07;1.90;;;1.77;;
44102;SDS011;29769;42.178;24.742;2024-01-15T00:28:52;0.57;;;0.57;;
44102;SDS011;29769;42.178;24.742;2024-01-15T00:31:37;4.88;;;2.70;;
44102;SDS011;29769;42.178;24.742;2024-01-15T00:34:22;2.78;;;2.55;;
44102;SDS011;29769;42.178;24.742;2024-01-15T00:37:07;0.70;;;0.70;;
44102;SDS011;29769;42.178;24.742;2024-01-15T00:39:52;0.60;;;0.60;;
44102;SDS011;29769;42.178;24.742;2024-01-15T00:42:37;1.65;;;1.55;;
44102;SDS011;29769;42.178;24.742;2024-01-15T00:45:21;7.00;;;2.25;;
44102;SDS011;29769;42.178;24.742;2024-01-15T00:48:07;4.00;;;2.15;;
44102;SDS011;29769;42.178;24.742;2024-01-15T00:50:52;2.53;;;2.30;;
44102;SDS011;29769;42.178;24.742;2024-01-15T00:53:38;2.97;;;0.90;;
44102;SDS011;29769;42.178;24.742;2024-01-15T00:56:23;2.60;;;2.38;;
44102;SDS011;29769;42.178;24.742;2024-01-15T00:59:08;3.50;;;1.73;;
44102;SDS011;29769;42.178;24.742;2024-01-15T01:01:54;2.45;;;2.25;;
44102;SDS011;29769;42.178;24.742;2024-01-15T01:04:40;1.38;;;1.38;;
44102;SDS011;29769;42.178;24.742;2024-01-15T01:07:24;1.67;;;1.58;;
44102;SDS011;29769;42.178;24.742;2024-01-15T01:10:09;1.20;;;1.17;;
44102;SDS011;29769;42.178;24.742;2024-01-15T01:12:54;0.75;;;0.75;;
44102;SDS011;29769;42.178;24.742;2024-01-15T01:15:39;5.18;;;4.63;;
44102;SDS011;29769;42.178;24.742;2024-01-15T01:18:24;1.20;;;1.15;;
44102;SDS011;29769;42.178;24.742;2024-01-15T01:21:09;4.97;;;0.88;;
44102;SDS011;29769;42.178;24.742;2024-01-15T01:23:54;1.77;;;1.65;;
44102;SDS011;29769;42.178;24.742;2024-01-15T01:26:39;5.30;;;1.95;;
44102;SDS011;29769;42.178;24.742;2024-01-15T01:29:24;2.75;;;2.08;;
44102;SDS011;29769;42.178;24.742;2024-01-15T01:32:09;3.70;;;1.67;;
44102;SDS011;29769;42.178;24.742;2024-01-15T01:34:54;1.38;;;1.27;;
44102;SDS011;29769;42.178;24.742;2024-01-15T01:37:38;3.58;;;3.30;;
44102;SDS011;29769;42.178;24.742;2024-01-15T01:40:24;1.05;;;1.00;;
44102;SDS011;29769;42.178;24.742;2024-01-15T01:43:09;1.50;;;1.42;;
44102;SDS011;29769;42.178;24.742;2024-01-15T01:45:55;3.60;;;1.20;;
44102;SDS011;29769;42.178;24.742;2024-01-15T01:48:42;0.77;;;0.77;;
44102;SDS011;29769;42.178;24.742;2024-01-15T01:51:27;2.08;;;1.92;;
44102;SDS011;29769;42.178;24.742;2024-01-15T01:54:12;3.88;;;3.58;;
44102;SDS011;29769;42.178;24.742;2024-01-15T01:56:58;2.22;;;2.13;;
44102;SDS011;29769;42.178;24.742;2024-01-15T01:59:44;0.73;;;0.73;;
44102;SDS011;29769;42.178;24.742;2024-01-15T02:02:31;3.88;;;2.00;;
44102;SDS011;29769;42.178;24.742;2024-01-15T02:05:18;2.00;;;1.90;;
44102;SDS011;29769;42.178;24.742;2024-01-15T02:08:04;0.90;;;0.57;;
44102;SDS011;29769;42.178;24.742;2024-01-15T02:10:49;2.95;;;2.30;;
44102;SDS011;29769;42.178;24.742;2024-01-15T02:13:34;3.20;;;1.75;;
44102;SDS011;29769;42.178;24.742;2024-01-15T02:16:19;3.55;;;1.50;;
44102;SDS011;29769;42.178;24.742;2024-01-15T02:19:04;2.75;;;1.17;;
44102;SDS011;29769;42.178;24.742;2024-01-15T02:21:49;1.67;;;1.58;;
44102;SDS011;29769;42.178;24.742;2024-01-15T02:24:34;0.80;;;0.80;;
44102;SDS011;29769;42.178;24.742;2024-01-15T02:27:20;2.55;;;2.35;;
44102;SDS011;29769;42.178;24.742;2024-01-15T02:30:05;6.13;;;4.10;;
44102;SDS011;29769;42.178;24.742;2024-01-15T02:32:51;1.98;;;1.77;;
44102;SDS011;29769;42.178;24.742;2024-01-15T02:35:37;1.00;;;0.60;;
44102;SDS011;29769;42.178;24.742;2024-01-15T02:38:22;1.75;;;1.65;;
44102;SDS011;29769;42.178;24.742;2024-01-15T02:41:07;1.05;;;1.05;;
44102;SDS011;29769;42.178;24.742;2024-01-15T02:43:52;15.38;;;3.58;;
44102;SDS011;29769;42.178;24.742;2024-01-15T02:46:37;1.60;;;1.50;;
44102;SDS011;29769;42.178;24.742;2024-01-15T02:49:22;2.05;;;0.75;;
44102;SDS011;29769;42.178;24.742;2024-01-15T02:52:06;2.72;;;2.05;;
44102;SDS011;29769;42.178;24.742;2024-01-15T02:54:52;0.88;;;0.70;;
44102;SDS011;29769;42.178;24.742;2024-01-15T02:57:36;6.05;;;2.15;;
44102;SDS011;29769;42.178;24.742;2024-01-15T03:00:21;2.03;;;1.92;;
44102;SDS011;29769;42.178;24.742;2024-01-15T03:03:06;0.52;;;0.52;;
44102;SDS011;29769;42.178;24.742;2024-01-15T03:05:51;1.75;;;1.65;;
44102;SDS011;29769;42.178;24.742;2024-01-15T03:08:36;8.07;;;3.42;;
44102;SDS011;29769;42.178;24.742;2024-01-15T03:11:21;0.20;;;0.20;;
44102;SDS011;29769;42.178;24.742;2024-01-15T03:14:06;1.52;;;1.52;;
44102;SDS011;29769;42.178;24.742;2024-01-15T03:16:52;16.58;;;3.08;;
44102;SDS011;29769;42.178;24.742;2024-01-15T03:19:37;1.30;;;1.23;;
44102;SDS011;29769;42.178;24.742;2024-01-15T03:22:22;0.43;;;0.43;;
44102;SDS011;29769;42.178;24.742;2024-01-15T03:25:07;0.75;;;0.75;;
44102;SDS011;29769;42.178;24.742;2024-01-15T03:27:52;3.53;;;1.73;;
44102;SDS011;29769;42.178;24.742;2024-01-15T03:30:37;3.20;;;3.00;;
44102;SDS011;29769;42.178;24.742;2024-01-15T03:33:22;1.27;;;1.27;;
44102;SDS011;29769;42.178;24.742;2024-01-15T03:36:07;2.38;;;2.17;;
44102;SDS011;29769;42.178;24.742;2024-01-15T03:38:53;2.10;;;0.85;;
44102;SDS011;29769;42.178;24.742;2024-01-15T03:41:38;3.78;;;2.22;;
44102;SDS011;29769;42.178;24.742;2024-01-15T03:44:23;22.25;;;2.60;;
44102;SDS011;29769;42.178;24.742;2024-01-15T03:47:08;1.85;;;1.75;;
44102;SDS011;29769;42.178;24.742;2024-01-15T03:49:53;2.40;;;1.58;;
44102;SDS011;29769;42.178;24.742;2024-01-15T03:52:38;0.85;;;0.85;;
44102;SDS011;29769;42.178;24.742;2024-01-15T03:55:23;20.88;;;5.10;;
44102;SDS011;29769;42.178;24.742;2024-01-15T03:58:08;3.50;;;2.60;;
44102;SDS011;29769;42.178;24.742;2024-01-15T04:00:52;1.00;;;1.00;;
44102;SDS011;29769;42.178;24.742;2024-01-15T04:03:38;1.60;;;1.48;;
44102;SDS011;29769;42.178;24.742;2024-01-15T04:06:22;1.83;;;1.67;;
44102;SDS011;29769;42.178;24.742;2024-01-15T04:09:07;0.28;;;0.28;;
44102;SDS011;29769;42.178;24.742;2024-01-15T04:11:52;3.00;;;0.98;;
44102;SDS011;29769;42.178;24.742;2024-01-15T04:14:37;1.80;;;1.67;;
44102;SDS011;29769;42.178;24.742;2024-01-15T04:17:22;0.73;;;0.73;;
44102;SDS011;29769;42.178;24.742;2024-01-15T04:20:07;2.70;;;2.47;;
44102;SDS011;29769;42.178;24.742;2024-01-15T04:22:52;0.28;;;0.28;;
44102;SDS011;29769;42.178;24.742;2024-01-15T04:25:37;0.28;;;0.28;;
44102;SDS011;29769;42.178;24.742;2024-01-15T04:28:23;1.05;;;1.05;;
44102;SDS011;29769;42.178;24.742;2024-01-15T04:31:08;0.70;;;0.70;;
44102;SDS011;29769;42.178;24.742;2024-01-15T04:33:53;1.10;;;1.10;;
44102;SDS011;29769;42.178;24.742;2024-01-15T04:36:39;2.35;;;1.38;;
44102;SDS011;29769;42.178;24.742;2024-01-15T04:39:24;4.20;;;1.40;;
44102;SDS011;29769;42.178;24.742;2024-01-15T04:42:10;1.23;;;1.13;;
44102;SDS011;29769;42.178;24.742;2024-01-15T04:44:54;1.85;;;1.75;;
44102;SDS011;29769;42.178;24.742;2024-01-15T04:47:39;9.52;;;1.55;;
44102;SDS011;29769;42.178;24.742;2024-01-15T04:50:24;0.70;;;0.70;;
44102;SDS011;29769;42.178;24.742;2024-01-15T04:53:09;1.83;;;1.65;;
44102;SDS011;29769;42.178;24.742;2024-01-15T04:55:54;0.82;;;0.82;;
44102;SDS011;29769;42.178;24.742;2024-01-15T04:58:39;1.42;;;1.42;;
44102;SDS011;29769;42.178;24.742;2024-01-15T05:01:24;17.58;;;3.63;;
44102;SDS011;29769;42.178;24.742;2024-01-15T05:04:09;1.75;;;1.65;;
44102;SDS011;29769;42.178;24.742;2024-01-15T05:06:55;3.97;;;2.75;;
44102;SDS011;29769;42.178;24.742;2024-01-15T05:09:39;1.65;;;1.20;;
44102;SDS011;29769;42.178;24.742;2024-01-15T05:12:24;2.03;;;1.92;;
44102;SDS011;29769;42.178;24.742;2024-01-15T05:15:09;5.57;;;2.88;;
44102;SDS011;29769;42.178;24.742;2024-01-15T05:17:54;1.42;;;1.38;;
44102;SDS011;29769;42.178;24.742;2024-01-15T05:20:39;4.47;;;3.60;;
44102;SDS011;29769;42.178;24.742;2024-01-15T05:23:24;4.85;;;3.35;;
44102;SDS011;29769;42.178;24.742;2024-01-15T05:26:09;11.82;;;4.47;;
44102;SDS011;29769;42.178;24.742;2024-01-15T05:28:54;2.92;;;2.30;;
44102;SDS011;29769;42.178;24.742;2024-01-15T05:31:39;1.50;;;1.40;;
44102;SDS011;29769;42.178;24.742;2024-01-15T05:34:24;1.60;;;1.55;;
44102;SDS011;29769;42.178;24.742;2024-01-15T05:37:09;1.17;;;1.08;;
44102;SDS011;29769;42.178;24.742;2024-01-15T05:39:54;10.23;;;2.08;;
44102;SDS011;29769;42.178;24.742;2024-01-15T05:42:39;1.65;;;1.55;;
44102;SDS011;29769;42.178;24.742;2024-01-15T05:45:26;18.40;;;4.32;;
44102;SDS011;29769;42.178;24.742;2024-01-15T05:48:11;1.70;;;1.60;;
44102;SDS011;29769;42.178;24.742;2024-01-15T05:50:56;6.35;;;4.00;;
44102;SDS011;29769;42.178;24.742;2024-01-15T05:53:41;0.70;;;0.70;;
44102;SDS011;29769;42.178;24.742;2024-01-15T05:56:28;2.30;;;2.13;;
44102;SDS011;29769;42.178;24.742;2024-01-15T05:59:13;3.97;;;3.22;;
44102;SDS011;29769;42.178;24.742;2024-01-15T06:01:59;7.05;;;1.80;;
44102;SDS011;29769;42.178;24.742;2024-01-15T06:04:43;0.93;;;0.93;;
44102;SDS011;29769;42.178;24.742;2024-01-15T06:07:28;3.20;;;1.60;;
44102;SDS011;29769;42.178;24.742;2024-01-15T06:10:13;0.45;;;0.45;;
44102;SDS011;29769;42.178;24.742;2024-01-15T06:12:58;0.73;;;0.73;;
44102;SDS011;29769;42.178;24.742;2024-01-15T06:15:43;3.25;;;2.67;;
44102;SDS011;29769;42.178;24.742;2024-01-15T06:18:28;1.67;;;1.42;;
44102;SDS011;29769;42.178;24.742;2024-01-15T06:21:13;1.20;;;1.20;;
44102;SDS011;29769;42.178;24.742;2024-01-15T06:23:58;2.03;;;1.52;;
44102;SDS011;29769;42.178;24.742;2024-01-15T06:26:43;1.73;;;1.63;;
44102;SDS011;29769;42.178;24.742;2024-01-15T06:29:28;3.10;;;2.83;;
44102;SDS011;29769;42.178;24.742;2024-01-15T06:32:14;3.92;;;3.50;;
44102;SDS011;29769;42.178;24.742;2024-01-15T06:34:59;1.95;;;1.80;;
44102;SDS011;29769;42.178;24.742;2024-01-15T06:37:44;0.82;;;0.82;;
44102;SDS011;29769;42.178;24.742;2024-01-15T06:40:28;1.85;;;1.52;;
44102;SDS011;29769;42.178;24.742;2024-01-15T06:43:14;3.53;;;2.58;;
44102;SDS011;29769;42.178;24.742;2024-01-15T06:46:01;1.33;;;1.33;;
44102;SDS011;29769;42.178;24.742;2024-01-15T06:48:46;0.70;;;0.70;;
44102;SDS011;29769;42.178;24.742;2024-01-15T06:51:31;4.93;;;4.45;;
44102;SDS011;29769;42.178;24.742;2024-01-15T06:54:16;2.08;;;2.00;;
44102;SDS011;29769;42.178;24.742;2024-01-15T06:57:01;0.40;;;0.40;;
44102;SDS011;29769;42.178;24.742;2024-01-15T06:59:46;3.92;;;1.75;;
44102;SDS011;29769;42.178;24.742;2024-01-15T07:02:31;3.53;;;1.45;;
44102;SDS011;29769;42.178;24.742;2024-01-15T07:05:16;4.45;;;1.17;;
44102;SDS011;29769;42.178;24.742;2024-01-15T07:08:01;1.65;;;1.60;;
44102;SDS011;29769;42.178;24.742;2024-01-15T07:10:46;2.95;;;1.75;;
44102;SDS011;29769;42.178;24.742;2024-01-15T07:13:31;2.53;;;2.35;;
44102;SDS011;29769;42.178;24.742;2024-01-15T07:16:17;1.42;;;1.40;;
44102;SDS011;29769;42.178;24.742;2024-01-15T07:19:01;2.67;;;2.22;;
44102;SDS011;29769;42.178;24.742;2024-01-15T07:21:47;1.67;;;1.58;;
44102;SDS011;29769;42.178;24.742;2024-01-15T07:24:32;10.95;;;4.55;;
44102;SDS011;29769;42.178;24.742;2024-01-15T07:27:19;3.22;;;2.90;;
44102;SDS011;29769;42.178;24.742;2024-01-15T07:30:04;6.35;;;5.40;;
44102;SDS011;29769;42.178;24.742;2024-01-15T07:32:50;4.30;;;3.92;;
44102;SDS011;29769;42.178;24.742;2024-01-15T07:35:37;8.20;;;5.53;;
44102;SDS011;29769;42.178;24.742;2024-01-15T07:38:22;7.50;;;5.05;;
44102;SDS011;29769;42.178;24.742;2024-01-15T07:41:07;8.43;;;3.78;;
44102;SDS011;29769;42.178;24.742;2024-01-15T07:43:52;2.33;;;2.13;;
44102;SDS011;29769;42.178;24.742;2024-01-15T07:46:37;3.85;;;3.53;;
44102;SDS011;29769;42.178;24.742;2024-01-15T07:49:23;3.28;;;2.55;;
44102;SDS011;29769;42.178;24.742;2024-01-15T07:52:09;3.25;;;1.45;;
44102;SDS011;29769;42.178;24.742;2024-01-15T07:54:54;3.63;;;3.42;;
44102;SDS011;29769;42.178;24.742;2024-01-15T07:57:39;11.70;;;3.67;;
44102;SDS011;29769;42.178;24.742;2024-01-15T08:00:25;2.85;;;1.85;;
44102;SDS011;29769;42.178;24.742;2024-01-15T08:03:10;6.32;;;4.20;;
44102;SDS011;29769;42.178;24.742;2024-01-15T08:05:56;4.90;;;2.45;;
44102;SDS011;29769;42.178;24.742;2024-01-15T08:08:41;5.15;;;4.20;;
44102;SDS011;29769;42.178;24.742;2024-01-15T08:11:26;2.95;;;2.00;;
44102;SDS011;29769;42.178;24.742;2024-01-15T08:14:12;2.80;;;2.60;;
44102;SDS011;29769;42.178;24.742;2024-01-15T08:16:58;0.73;;;0.73;;
44102;SDS011;29769;42.178;24.742;2024-01-15T08:19:42;4.10;;;3.72;;
44102;SDS011;29769;42.178;24.742;2024-01-15T08:22:28;2.70;;;2.58;;
44102;SDS011;29769;42.178;24.742;2024-01-15T08:25:13;1.90;;;1.80;;
44102;SDS011;29769;42.178;24.742;2024-01-15T08:27:58;3.03;;;2.75;;
44102;SDS011;29769;42.178;24.742;2024-01-15T08:30:43;6.65;;;4.07;;
44102;SDS011;29769;42.178;24.742;2024-01-15T08:33:28;15.05;;;3.85;;
44102;SDS011;29769;42.178;24.742;2024-01-15T08:36:14;3.38;;;3.08;;
44102;SDS011;29769;42.178;24.742;2024-01-15T08:38:59;4.18;;;3.83;;
44102;SDS011;29769;42.178;24.742;2024-01-15T08:41:44;5.97;;;4.65;;
44102;SDS011;29769;42.178;24.742;2024-01-15T08:44:29;3.50;;;3.08;;
44102;SDS011;29769;42.178;24.742;2024-01-15T08:47:14;12.73;;;3.15;;
44102;SDS011;29769;42.178;24.742;2024-01-15T08:49:59;4.25;;;3.95;;
44102;SDS011;29769;42.178;24.742;2024-01-15T08:52:44;7.40;;;3.33;;
44102;SDS011;29769;42.178;24.742;2024-01-15T08:55:30;2.17;;;2.00;;
44102;SDS011;29769;42.178;24.742;2024-01-15T08:58:15;1.05;;;1.05;;
44102;SDS011;29769;42.178;24.742;2024-01-15T09:01:00;4.57;;;4.18;;
44102;SDS011;29769;42.178;24.742;2024-01-15T09:03:45;5.50;;;1.75;;
44102;SDS011;29769;42.178;24.742;2024-01-15T09:06:31;7.55;;;3.38;;
44102;SDS011;29769;42.178;24.742;2024-01-15T09:09:15;3.67;;;3.00;;
44102;SDS011;29769;42.178;24.742;2024-01-15T09:12:00;5.93;;;2.65;;
44102;SDS011;29769;42.178;24.742;2024-01-15T09:14:46;4.07;;;3.63;;
44102;SDS011;29769;42.178;24.742;2024-01-15T09:17:31;7.85;;;3.10;;
44102;SDS011;29769;42.178;24.742;2024-01-15T09:20:17;13.05;;;3.83;;
44102;SDS011;29769;42.178;24.742;2024-01-15T09:23:03;1.35;;;1.35;;
44102;SDS011;29769;42.178;24.742;2024-01-15T09:25:47;5.25;;;3.15;;
44102;SDS011;29769;42.178;24.742;2024-01-15T09:28:33;3.20;;;2.97;;
44102;SDS011;29769;42.178;24.742;2024-01-15T09:31:18;6.68;;;3.60;;
44102;SDS011;29769;42.178;24.742;2024-01-15T09:34:04;4.90;;;2.38;;
44102;SDS011;29769;42.178;24.742;2024-01-15T09:36:49;3.40;;;3.13;;
44102;SDS011;29769;42.178;24.742;2024-01-15T09:39:34;3.47;;;3.22;;
44102;SDS011;29769;42.178;24.742;2024-01-15T09:42:19;5.68;;;5.13;;
44102;SDS011;29769;42.178;24.742;2024-01-15T09:45:05;6.05;;;2.20;;
44102;SDS011;29769;42.178;24.742;2024-01-15T09:47:50;9.60;;;3.00;;
44102;SDS011;29769;42.178;24.742;2024-01-15T09:50:35;8.40;;;2.10;;
44102;SDS011;29769;42.178;24.742;2024-01-15T09:53:21;2.33;;;2.15;;
44102;SDS011;29769;42.178;24.742;2024-01-15T09:56:06;5.85;;;3.15;;
44102;SDS011;29769;42.178;24.742;2024-01-15T09:58:53;0.70;;;0.70;;
44102;SDS011;29769;42.178;24.742;2024-01-15T10:01:38;2.22;;;1.17;;
44102;SDS011;29769;42.178;24.742;2024-01-15T10:04:25;2.50;;;1.75;;
44102;SDS011;29769;42.178;24.742;2024-01-15T10:07:10;2.22;;;2.08;;
44102;SDS011;29769;42.178;24.742;2024-01-15T10:10:00;2.20;;;1.92;;
44102;SDS011;29769;42.178;24.742;2024-01-15T10:12:45;3.40;;;3.17;;
44102;SDS011;29769;42.178;24.742;2024-01-15T10:15:33;3.85;;;2.08;;
44102;SDS011;29769;42.178;24.742;2024-01-15T10:18:21;2.17;;;2.08;;
44102;SDS011;29769;42.178;24.742;2024-01-15T10:21:06;8.07;;;4.65;;
44102;SDS011;29769;42.178;24.742;2024-01-15T10:23:52;3.35;;;3.05;;
44102;SDS011;29769;42.178;24.742;2024-01-15T10:26:38;4.63;;;2.47;;
44102;SDS011;29769;42.178;24.742;2024-01-15T10:29:24;1.52;;;1.50;;
44102;SDS011;29769;42.178;24.742;2024-01-15T10:32:09;4.43;;;4.00;;
44102;SDS011;29769;42.178;24.742;2024-01-15T10:34:54;11.35;;;3.80;;
44102;SDS011;29769;42.178;24.742;2024-01-15T10:37:41;4.90;;;3.33;;
44102;SDS011;29769;42.178;24.742;2024-01-15T10:40:26;4.53;;;3.28;;
44102;SDS011;29769;42.178;24.742;2024-01-15T10:43:11;6.20;;;5.70;;
44102;SDS011;29769;42.178;24.742;2024-01-15T10:45:56;2.08;;;1.98;;
44102;SDS011;29769;42.178;24.742;2024-01-15T10:48:41;9.07;;;5.13;;
44102;SDS011;29769;42.178;24.742;2024-01-15T10:54:11;3.05;;;2.85;;
44102;SDS011;29769;42.178;24.742;2024-01-15T10:56:58;8.77;;;5.60;;
44102;SDS011;29769;42.178;24.742;2024-01-15T11:02:27;5.07;;;4.57;;
44102;SDS011;29769;42.178;24.742;2024-01-15T11:07:58;19.02;;;4.72;;
44102;SDS011;29769;42.178;24.742;2024-01-15T11:10:45;15.30;;;5.07;;
44102;SDS011;29769;42.178;24.742;2024-01-15T11:16:18;10.23;;;5.63;;
44102;SDS011;29769;42.178;24.742;2024-01-15T11:19:03;26.27;;;7.20;;
44102;SDS011;29769;42.178;24.742;2024-01-15T11:21:51;4.97;;;4.32;;
44102;SDS011;29769;42.178;24.742;2024-01-15T11:24:36;19.08;;;8.13;;
44102;SDS011;29769;42.178;24.742;2024-01-15T11:30:29;8.77;;;6.47;;
44102;SDS011;29769;42.178;24.742;2024-01-15T11:33:32;8.75;;;7.03;;
44102;SDS011;29769;42.178;24.742;2024-01-15T11:36:17;14.25;;;6.53;;
44102;SDS011;29769;42.178;24.742;2024-01-15T11:39:29;10.00;;;6.88;;
44102;SDS011;29769;42.178;24.742;2024-01-15T11:42:13;13.88;;;5.78;;
44102;SDS011;29769;42.178;24.742;2024-01-15T11:44:59;8.00;;;5.75;;
44102;SDS011;29769;42.178;24.742;2024-01-15T11:50:52;10.63;;;5.80;;
44102;SDS011;29769;42.178;24.742;2024-01-15T11:53:40;10.93;;;6.00;;
44102;SDS011;29769;42.178;24.742;2024-01-15T11:56:29;7.63;;;6.07;;
44102;SDS011;29769;42.178;24.742;2024-01-15T11:59:15;12.18;;;5.68;;
44102;SDS011;29769;42.178;24.742;2024-01-15T12:02:00;9.63;;;6.57;;
44102;SDS011;29769;42.178;24.742;2024-01-15T12:04:47;14.38;;;7.03;;
44102;SDS011;29769;42.178;24.742;2024-01-15T12:07:32;30.45;;;9.77;;
44102;SDS011;29769;42.178;24.742;2024-01-15T12:10:19;18.58;;;7.93;;
44102;SDS011;29769;42.178;24.742;2024-01-15T12:13:05;12.60;;;7.13;;
44102;SDS011;29769;42.178;24.742;2024-01-15T12:16:00;11.75;;;7.25;;
44102;SDS011;29769;42.178;24.742;2024-01-15T12:18:46;12.32;;;6.80;;
44102;SDS011;29769;42.178;24.742;2024-01-15T12:21:31;19.50;;;7.43;;
44102;SDS011;29769;42.178;24.742;2024-01-15T12:24:17;9.98;;;7.18;;
44102;SDS011;29769;42.178;24.742;2024-01-15T12:27:02;18.90;;;7.43;;
44102;SDS011;29769;42.178;24.742;2024-01-15T12:29:47;10.18;;;7.40;;
44102;SDS011;29769;42.178;24.742;2024-01-15T12:32:32;14.95;;;5.75;;
44102;SDS011;29769;42.178;24.742;2024-01-15T12:38:01;10.55;;;6.65;;
44102;SDS011;29769;42.178;24.742;2024-01-15T12:40:49;13.70;;;6.07;;
44102;SDS011;29769;42.178;24.742;2024-01-15T12:46:19;13.30;;;5.82;;
44102;SDS011;29769;42.178;24.742;2024-01-15T12:51:52;6.75;;;4.85;;
44102;SDS011;29769;42.178;24.742;2024-01-15T12:54:38;6.75;;;5.93;;
44102;SDS011;29769;42.178;24.742;2024-01-15T12:57:22;9.65;;;4.22;;
44102;SDS011;29769;42.178;24.742;2024-01-15T13:00:08;10.02;;;3.95;;
44102;SDS011;29769;42.178;24.742;2024-01-15T13:02:57;41.72;;;3.60;;
44102;SDS011;29769;42.178;24.742;2024-01-15T13:05:42;6.97;;;4.97;;
44102;SDS011;29769;42.178;24.742;2024-01-15T13:11:14;4.38;;;3.95;;
44102;SDS011;29769;42.178;24.742;2024-01-15T13:13:59;12.27;;;4.82;;
44102;SDS011;29769;42.178;24.742;2024-01-15T13:16:44;2.60;;;2.13;;
44102;SDS011;29769;42.178;24.742;2024-01-15T13:19:29;8.48;;;4.80;;
44102;SDS011;29769;42.178;24.742;2024-01-15T13:22:14;10.73;;;3.92;;
44102;SDS011;29769;42.178;24.742;2024-01-15T13:24:59;3.58;;;3.30;;
44102;SDS011;29769;42.178;24.742;2024-01-15T13:27:44;12.93;;;6.70;;
44102;SDS011;29769;42.178;24.742;2024-01-15T13:30:29;11.00;;;5.65;;
44102;SDS011;29769;42.178;24.742;2024-01-15T13:33:14;4.43;;;4.10;;
44102;SDS011;29769;42.178;24.742;2024-01-15T13:36:00;6.15;;;4.20;;
44102;SDS011;29769;42.178;24.742;2024-01-15T13:38:44;7.82;;;5.75;;
44102;SDS011;29769;42.178;24.742;2024-01-15T13:41:29;4.45;;;3.58;;
44102;SDS011;29769;42.178;24.742;2024-01-15T13:44:14;7.82;;;4.93;;
44102;SDS011;29769;42.178;24.742;2024-01-15T13:46:59;4.80;;;3.08;;
44102;SDS011;29769;42.178;24.742;2024-01-15T13:49:45;6.82;;;3.13;;
44102;SDS011;29769;42.178;24.742;2024-01-15T13:52:30;6.13;;;3.30;;
44102;SDS011;29769;42.178;24.742;2024-01-15T13:57:59;10.55;;;4.95;;
44102;SDS011;29769;42.178;24.742;2024-01-15T14:00:44;6.57;;;5.13;;
44102;SDS011;29769;42.178;24.742;2024-01-15T14:03:29;6.07;;;3.70;;
44102;SDS011;29769;42.178;24.742;2024-01-15T14:08:59;6.85;;;3.25;;
44102;SDS011;29769;42.178;24.742;2024-01-15T14:11:44;9.15;;;3.65;;
44102;SDS011;29769;42.178;24.742;2024-01-15T14:14:29;7.32;;;2.25;;
44102;SDS011;29769;42.178;24.742;2024-01-15T14:17:14;4.97;;;3.08;;
44102;SDS011;29769;42.178;24.742;2024-01-15T14:19:59;3.72;;;2.60;;
44102;SDS011;29769;42.178;24.742;2024-01-15T14:22:44;8.57;;;4.00;;
44102;SDS011;29769;42.178;24.742;2024-01-15T14:25:29;7.60;;;5.15;;
44102;SDS011;29769;42.178;24.742;2024-01-15T14:28:14;4.20;;;3.88;;
44102;SDS011;29769;42.178;24.742;2024-01-15T14:30:59;4.03;;;3.17;;
44102;SDS011;29769;42.178;24.742;2024-01-15T14:33:44;29.50;;;4.63;;
44102;SDS011;29769;42.178;24.742;2024-01-15T14:36:29;4.40;;;3.85;;
44102;SDS011;29769;42.178;24.742;2024-01-15T14:39:14;6.22;;;2.30;;
44102;SDS011;29769;42.178;24.742;2024-01-15T14:41:59;4.50;;;2.45;;
44102;SDS011;29769;42.178;24.742;2024-01-15T14:44:46;3.85;;;3.55;;
44102;SDS011;29769;42.178;24.742;2024-01-15T14:47:31;2.97;;;2.78;;
44102;SDS011;29769;42.178;24.742;2024-01-15T14:50:16;2.28;;;1.75;;
44102;SDS011;29769;42.178;24.742;2024-01-15T14:53:01;9.35;;;3.97;;
44102;SDS011;29769;42.178;24.742;2024-01-15T14:55:46;1.40;;;0.93;;
44102;SDS011;29769;42.178;24.742;2024-01-15T14:58:31;10.80;;;3.85;;
44102;SDS011;29769;42.178;24.742;2024-01-15T15:01:16;4.78;;;3.72;;
44102;SDS011;29769;42.178;24.742;2024-01-15T15:04:01;1.27;;;1.17;;
44102;SDS011;29769;42.178;24.742;2024-01-15T15:06:46;4.07;;;1.80;;
44102;SDS011;29769;42.178;24.742;2024-01-15T15:09:31;16.17;;;2.85;;
44102;SDS011;29769;42.178;24.742;2024-01-15T15:12:16;9.27;;;5.65;;
44102;SDS011;29769;42.178;24.742;2024-01-15T15:15:01;8.07;;;2.63;;
44102;SDS011;29769;42.178;24.742;2024-01-15T15:17:46;3.88;;;2.13;;
44102;SDS011;29769;42.178;24.742;2024-01-15T15:20:31;10.95;;;3.00;;
44102;SDS011;29769;42.178;24.742;2024-01-15T15:23:17;4.63;;;2.30;;
44102;SDS011;29769;42.178;24.742;2024-01-15T15:26:03;4.07;;;3.25;;
44102;SDS011;29769;42.178;24.742;2024-01-15T15:28:48;2.25;;;2.15;;
44102;SDS011;29769;42.178;24.742;2024-01-15T15:31:33;17.48;;;8.63;;
44102;SDS011;29769;42.178;24.742;2024-01-15T15:34:18;28.30;;;12.55;;
44102;SDS011;29769;42.178;24.742;2024-01-15T15:39:48;13.40;;;7.70;;
44102;SDS011;29769;42.178;24.742;2024-01-15T15:42:33;15.05;;;6.68;;
44102;SDS011;29769;42.178;24.742;2024-01-15T15:45:18;8.52;;;7.68;;
44102;SDS011;29769;42.178;24.742;2024-01-15T15:48:03;9.90;;;7.00;;
44102;SDS011;29769;42.178;24.742;2024-01-15T15:50:49;12.65;;;7.72;;
44102;SDS011;29769;42.178;24.742;2024-01-15T15:53:34;17.08;;;6.68;;
44102;SDS011;29769;42.178;24.742;2024-01-15T15:59:05;8.55;;;4.72;;
44102;SDS011;29769;42.178;24.742;2024-01-15T16:01:53;8.75;;;7.90;;
44102;SDS011;29769;42.178;24.742;2024-01-15T16:04:38;15.05;;;7.13;;
44102;SDS011;29769;42.178;24.742;2024-01-15T16:07:23;4.55;;;4.13;;
44102;SDS011;29769;42.178;24.742;2024-01-15T16:10:12;9.98;;;6.65;;
44102;SDS011;29769;42.178;24.742;2024-01-15T16:12:57;21.73;;;3.95;;
44102;SDS011;29769;42.178;24.742;2024-01-15T16:15:42;4.80;;;4.15;;
44102;SDS011;29769;42.178;24.742;2024-01-15T16:18:27;2.08;;;1.98;;
44102;SDS011;29769;42.178;24.742;2024-01-15T16:21:12;21.85;;;6.10;;
44102;SDS011;29769;42.178;24.742;2024-01-15T16:23:58;5.32;;;3.05;;
44102;SDS011;29769;42.178;24.742;2024-01-15T16:26:43;4.68;;;3.55;;
44102;SDS011;29769;42.178;24.742;2024-01-15T16:29:28;3.58;;;3.30;;
44102;SDS011;29769;42.178;24.742;2024-01-15T16:32:13;7.70;;;3.60;;
44102;SDS011;29769;42.178;24.742;2024-01-15T16:34:58;3.85;;;2.53;;
44102;SDS011;29769;42.178;24.742;2024-01-15T16:37:43;4.05;;;3.67;;
44102;SDS011;29769;42.178;24.742;2024-01-15T16:40:28;5.60;;;2.40;;
44102;SDS011;29769;42.178;24.742;2024-01-15T16:43:13;1.17;;;1.15;;
44102;SDS011;29769;42.178;24.742;2024-01-15T16:45:58;3.40;;;3.15;;
44102;SDS011;29769;42.178;24.742;2024-01-15T16:48:43;1.23;;;1.23;;
44102;SDS011;29769;42.178;24.742;2024-01-15T16:51:27;4.82;;;3.65;;
44102;SDS011;29769;42.178;24.742;2024-01-15T16:54:13;4.28;;;3.88;;
44102;SDS011;29769;42.178;24.742;2024-01-15T16:56:58;3.97;;;3.53;;
44102;SDS011;29769;42.178;24.742;2024-01-15T16:59:42;3.97;;;2.15;;